sensor_id;sensor_type;location;lat;lon;timestamp;P1;durP1;ratioP1;P2;durP2;ratioP2
55346;SDS011;41218;55.700;38.270;2022-11-15T00:04:53;1.30;;;0.70;;
55346;SDS011;41218;55.700;38.270;2022-11-15T00:09:54;4.00;;;0.80;;
55346;SDS011;41218;55.700;38.270;2022-11-15T00:14:54;1.47;;;0.57;;
55346;SDS011;41218;55.700;38.270;2022-11-15T00:19:55;0.43;;;0.40;;
55346;SDS011;41218;55.700;38.270;2022-11-15T00:24:55;0.38;;;0.38;;
55346;SDS011;41218;55.700;38.270;2022-11-15T00:29:56;0.37;;;0.23;;
55346;SDS011;41218;55.700;38.270;2022-11-15T00:34:57;0.93;;;0.60;;
55346;SDS011;41218;55.700;38.270;2022-11-15T00:39:57;2.83;;;0.70;;
55346;SDS011;41218;55.700;38.270;2022-11-15T00:44:58;1.67;;;0.70;;
55346;SDS011;41218;55.700;38.270;2022-11-15T00:49:58;1.20;;;0.60;;
55346;SDS011;41218;55.700;38.270;2022-11-15T00:54:59;1.80;;;0.57;;
55346;SDS011;41218;55.700;38.270;2022-11-15T00:59:59;1.10;;;0.50;;
55346;SDS011;41218;55.700;38.270;2022-11-15T01:05:00;4.00;;;0.60;;
55346;SDS011;41218;55.700;38.270;2022-11-15T01:10:00;1.87;;;0.50;;
55346;SDS011;41218;55.700;38.270;2022-11-15T01:15:01;2.03;;;0.63;;
55346;SDS011;41218;55.700;38.270;2022-11-15T01:20:02;5.57;;;0.80;;
55346;SDS011;41218;55.700;38.270;2022-11-15T01:25:03;1.45;;;0.73;;
55346;SDS011;41218;55.700;38.270;2022-11-15T01:30:04;1.30;;;0.60;;
55346;SDS011;41218;55.700;38.270;2022-11-15T01:35:05;3.13;;;0.90;;
55346;SDS011;41218;55.700;38.270;2022-11-15T01:40:06;1.17;;;0.80;;
55346;SDS011;41218;55.700;38.270;2022-11-15T01:45:11;1.50;;;0.60;;
55346;SDS011;41218;55.700;38.270;2022-11-15T01:50:16;2.75;;;1.00;;
55346;SDS011;41218;55.700;38.270;2022-11-15T01:55:21;1.35;;;0.80;;
55346;SDS011;41218;55.700;38.270;2022-11-15T02:00:25;1.25;;;0.60;;
55346;SDS011;41218;55.700;38.270;2022-11-15T02:05:25;2.83;;;0.70;;
55346;SDS011;41218;55.700;38.270;2022-11-15T02:10:27;5.93;;;0.80;;
55346;SDS011;41218;55.700;38.270;2022-11-15T02:15:30;1.00;;;0.70;;
55346;SDS011;41218;55.700;38.270;2022-11-15T02:20:55;0.73;;;0.47;;
55346;SDS011;41218;55.700;38.270;2022-11-15T02:36:53;4.70;;;0.95;;
55346;SDS011;41218;55.700;38.270;2022-11-15T02:42:04;3.30;;;0.80;;
55346;SDS011;41218;55.700;38.270;2022-11-15T02:47:35;1.80;;;0.95;;
55346;SDS011;41218;55.700;38.270;2022-11-15T02:52:43;3.25;;;0.90;;
55346;SDS011;41218;55.700;38.270;2022-11-15T02:57:52;0.85;;;0.70;;
55346;SDS011;41218;55.700;38.270;2022-11-15T03:08:32;2.75;;;0.80;;
55346;SDS011;41218;55.700;38.270;2022-11-15T03:18:41;2.13;;;1.23;;
55346;SDS011;41218;55.700;38.270;2022-11-15T03:23:47;2.95;;;0.88;;
55346;SDS011;41218;55.700;38.270;2022-11-15T03:28:50;3.40;;;1.00;;
55346;SDS011;41218;55.700;38.270;2022-11-15T03:33:55;2.30;;;0.70;;
55346;SDS011;41218;55.700;38.270;2022-11-15T03:39:00;4.18;;;1.10;;
55346;SDS011;41218;55.700;38.270;2022-11-15T03:45:08;2.42;;;1.08;;
55346;SDS011;41218;55.700;38.270;2022-11-15T03:49:52;2.40;;;1.10;;
55346;SDS011;41218;55.700;38.270;2022-11-15T03:54:58;2.67;;;0.85;;
55346;SDS011;41218;55.700;38.270;2022-11-15T04:00:03;1.35;;;0.85;;
55346;SDS011;41218;55.700;38.270;2022-11-15T04:05:05;2.78;;;1.23;;
55346;SDS011;41218;55.700;38.270;2022-11-15T04:10:05;3.93;;;0.80;;
55346;SDS011;41218;55.700;38.270;2022-11-15T04:15:07;4.72;;;1.08;;
55346;SDS011;41218;55.700;38.270;2022-11-15T04:20:45;2.85;;;1.00;;
55346;SDS011;41218;55.700;38.270;2022-11-15T04:26:01;2.00;;;0.90;;
55346;SDS011;41218;55.700;38.270;2022-11-15T04:31:10;0.75;;;0.70;;
55346;SDS011;41218;55.700;38.270;2022-11-15T04:36:10;1.57;;;0.90;;
55346;SDS011;41218;55.700;38.270;2022-11-15T04:41:49;2.20;;;0.75;;
55346;SDS011;41218;55.700;38.270;2022-11-15T04:46:50;1.27;;;0.67;;
55346;SDS011;41218;55.700;38.270;2022-11-15T04:51:50;2.93;;;1.00;;
55346;SDS011;41218;55.700;38.270;2022-11-15T04:56:51;1.57;;;1.10;;
55346;SDS011;41218;55.700;38.270;2022-11-15T05:01:51;3.00;;;1.17;;
55346;SDS011;41218;55.700;38.270;2022-11-15T05:06:52;1.20;;;0.50;;
55346;SDS011;41218;55.700;38.270;2022-11-15T05:11:52;0.60;;;0.50;;
55346;SDS011;41218;55.700;38.270;2022-11-15T05:16:53;1.60;;;0.77;;
55346;SDS011;41218;55.700;38.270;2022-11-15T05:21:53;3.37;;;0.90;;
55346;SDS011;41218;55.700;38.270;2022-11-15T05:26:54;2.23;;;1.10;;
55346;SDS011;41218;55.700;38.270;2022-11-15T05:31:54;0.73;;;0.70;;
55346;SDS011;41218;55.700;38.270;2022-11-15T05:36:55;5.23;;;1.10;;
55346;SDS011;41218;55.700;38.270;2022-11-15T05:41:56;2.13;;;0.90;;
55346;SDS011;41218;55.700;38.270;2022-11-15T05:47:02;1.67;;;0.65;;
55346;SDS011;41218;55.700;38.270;2022-11-15T05:52:06;3.60;;;0.93;;
55346;SDS011;41218;55.700;38.270;2022-11-15T05:57:09;4.75;;;1.17;;
55346;SDS011;41218;55.700;38.270;2022-11-15T06:02:10;3.08;;;1.10;;
55346;SDS011;41218;55.700;38.270;2022-11-15T06:12:11;4.43;;;1.67;;
55346;SDS011;41218;55.700;38.270;2022-11-15T06:17:12;3.47;;;1.23;;
55346;SDS011;41218;55.700;38.270;2022-11-15T06:22:12;2.87;;;1.37;;
55346;SDS011;41218;55.700;38.270;2022-11-15T06:32:15;2.55;;;1.00;;
55346;SDS011;41218;55.700;38.270;2022-11-15T06:37:16;3.63;;;1.40;;
55346;SDS011;41218;55.700;38.270;2022-11-15T06:42:16;2.97;;;1.10;;
55346;SDS011;41218;55.700;38.270;2022-11-15T06:47:17;1.37;;;0.90;;
55346;SDS011;41218;55.700;38.270;2022-11-15T06:52:17;2.53;;;1.40;;
55346;SDS011;41218;55.700;38.270;2022-11-15T06:57:19;2.05;;;1.20;;
55346;SDS011;41218;55.700;38.270;2022-11-15T07:02:20;3.50;;;1.37;;
55346;SDS011;41218;55.700;38.270;2022-11-15T07:07:20;5.20;;;1.37;;
55346;SDS011;41218;55.700;38.270;2022-11-15T07:12:21;1.97;;;0.80;;
55346;SDS011;41218;55.700;38.270;2022-11-15T07:17:21;2.60;;;1.53;;
55346;SDS011;41218;55.700;38.270;2022-11-15T07:22:22;2.87;;;1.50;;
55346;SDS011;41218;55.700;38.270;2022-11-15T07:27:22;3.37;;;1.30;;
55346;SDS011;41218;55.700;38.270;2022-11-15T07:32:23;2.27;;;1.70;;
55346;SDS011;41218;55.700;38.270;2022-11-15T07:37:23;1.77;;;1.27;;
55346;SDS011;41218;55.700;38.270;2022-11-15T07:42:24;5.47;;;2.17;;
55346;SDS011;41218;55.700;38.270;2022-11-15T07:47:46;9.52;;;2.45;;
55346;SDS011;41218;55.700;38.270;2022-11-15T07:52:51;5.18;;;2.20;;
55346;SDS011;41218;55.700;38.270;2022-11-15T07:57:59;7.18;;;2.58;;
55346;SDS011;41218;55.700;38.270;2022-11-15T08:03:11;25.50;;;7.40;;
55346;SDS011;41218;55.700;38.270;2022-11-15T08:08:13;7.90;;;2.38;;
55346;SDS011;41218;55.700;38.270;2022-11-15T08:13:14;5.50;;;1.97;;
55346;SDS011;41218;55.700;38.270;2022-11-15T08:18:15;5.22;;;1.88;;
55346;SDS011;41218;55.700;38.270;2022-11-15T08:23:16;4.30;;;1.80;;
55346;SDS011;41218;55.700;38.270;2022-11-15T08:28:17;5.10;;;2.00;;
55346;SDS011;41218;55.700;38.270;2022-11-15T08:33:17;8.77;;;1.70;;
55346;SDS011;41218;55.700;38.270;2022-11-15T08:38:18;3.30;;;1.90;;
55346;SDS011;41218;55.700;38.270;2022-11-15T08:43:18;4.13;;;2.10;;
55346;SDS011;41218;55.700;38.270;2022-11-15T08:48:19;3.03;;;1.60;;
55346;SDS011;41218;55.700;38.270;2022-11-15T08:53:19;2.57;;;1.43;;
55346;SDS011;41218;55.700;38.270;2022-11-15T08:58:20;6.10;;;1.90;;
55346;SDS011;41218;55.700;38.270;2022-11-15T09:03:20;5.93;;;1.83;;
55346;SDS011;41218;55.700;38.270;2022-11-15T09:08:21;3.23;;;1.43;;
55346;SDS011;41218;55.700;38.270;2022-11-15T09:13:21;7.40;;;1.57;;
55346;SDS011;41218;55.700;38.270;2022-11-15T09:18:22;5.00;;;1.90;;
55346;SDS011;41218;55.700;38.270;2022-11-15T09:23:23;10.73;;;3.10;;
55346;SDS011;41218;55.700;38.270;2022-11-15T09:28:24;6.22;;;3.00;;
55346;SDS011;41218;55.700;38.270;2022-11-15T09:33:25;6.67;;;2.70;;
55346;SDS011;41218;55.700;38.270;2022-11-15T09:38:27;4.82;;;2.28;;
55346;SDS011;41218;55.700;38.270;2022-11-15T09:48:53;3.80;;;2.42;;
55346;SDS011;41218;55.700;38.270;2022-11-15T10:05:11;7.20;;;2.45;;
55346;SDS011;41218;55.700;38.270;2022-11-15T10:15:30;5.68;;;2.30;;
55346;SDS011;41218;55.700;38.270;2022-11-15T10:25:40;3.40;;;2.10;;
55346;SDS011;41218;55.700;38.270;2022-11-15T10:30:42;14.07;;;2.20;;
55346;SDS011;41218;55.700;38.270;2022-11-15T10:35:44;10.35;;;2.40;;
55346;SDS011;41218;55.700;38.270;2022-11-15T10:40:45;4.03;;;2.30;;
55346;SDS011;41218;55.700;38.270;2022-11-15T10:45:46;5.40;;;2.10;;
55346;SDS011;41218;55.700;38.270;2022-11-15T10:50:47;7.95;;;2.30;;
55346;SDS011;41218;55.700;38.270;2022-11-15T10:55:51;5.95;;;2.65;;
55346;SDS011;41218;55.700;38.270;2022-11-15T11:06:25;5.30;;;2.58;;
55346;SDS011;41218;55.700;38.270;2022-11-15T11:27:14;6.60;;;2.92;;
55346;SDS011;41218;55.700;38.270;2022-11-15T11:37:51;9.13;;;2.72;;
55346;SDS011;41218;55.700;38.270;2022-11-15T11:48:13;6.07;;;2.15;;
55346;SDS011;41218;55.700;38.270;2022-11-15T11:53:31;6.20;;;2.53;;
55346;SDS011;41218;55.700;38.270;2022-11-15T11:59:02;4.57;;;2.38;;
55346;SDS011;41218;55.700;38.270;2022-11-15T12:04:21;7.05;;;2.40;;
55346;SDS011;41218;55.700;38.270;2022-11-15T12:09:30;8.70;;;2.17;;
55346;SDS011;41218;55.700;38.270;2022-11-15T12:25:45;14.98;;;2.85;;
55346;SDS011;41218;55.700;38.270;2022-11-15T12:36:02;5.93;;;2.40;;
55346;SDS011;41218;55.700;38.270;2022-11-15T12:41:15;3.92;;;2.25;;
55346;SDS011;41218;55.700;38.270;2022-11-15T12:57:22;6.75;;;2.40;;
55346;SDS011;41218;55.700;38.270;2022-11-15T13:02:16;7.07;;;2.60;;
55346;SDS011;41218;55.700;38.270;2022-11-15T13:22:44;3.77;;;1.93;;
55346;SDS011;41218;55.700;38.270;2022-11-15T13:27:51;5.25;;;2.00;;
55346;SDS011;41218;55.700;38.270;2022-11-15T13:32:54;4.15;;;1.80;;
55346;SDS011;41218;55.700;38.270;2022-11-15T13:37:55;5.45;;;2.60;;
55346;SDS011;41218;55.700;38.270;2022-11-15T13:42:57;6.10;;;2.00;;
55346;SDS011;41218;55.700;38.270;2022-11-15T13:47:58;2.17;;;1.80;;
55346;SDS011;41218;55.700;38.270;2022-11-15T13:52:59;4.00;;;2.23;;
55346;SDS011;41218;55.700;38.270;2022-11-15T13:58:03;3.53;;;1.67;;
55346;SDS011;41218;55.700;38.270;2022-11-15T14:03:17;4.57;;;2.30;;
55346;SDS011;41218;55.700;38.270;2022-11-15T14:13:28;8.90;;;2.70;;
55346;SDS011;41218;55.700;38.270;2022-11-15T14:19:13;4.82;;;2.53;;
55346;SDS011;41218;55.700;38.270;2022-11-15T14:34:28;5.10;;;2.20;;
55346;SDS011;41218;55.700;38.270;2022-11-15T14:39:32;5.38;;;2.33;;
55346;SDS011;41218;55.700;38.270;2022-11-15T14:44:32;4.73;;;2.13;;
55346;SDS011;41218;55.700;38.270;2022-11-15T14:49:33;4.63;;;2.00;;
55346;SDS011;41218;55.700;38.270;2022-11-15T14:54:33;5.27;;;2.00;;
55346;SDS011;41218;55.700;38.270;2022-11-15T14:59:33;5.47;;;1.97;;
55346;SDS011;41218;55.700;38.270;2022-11-15T15:04:34;6.80;;;2.07;;
55346;SDS011;41218;55.700;38.270;2022-11-15T15:09:34;7.50;;;2.23;;
55346;SDS011;41218;55.700;38.270;2022-11-15T15:14:35;4.87;;;2.17;;
55346;SDS011;41218;55.700;38.270;2022-11-15T15:19:36;4.77;;;1.90;;
55346;SDS011;41218;55.700;38.270;2022-11-15T15:24:38;6.03;;;1.92;;
55346;SDS011;41218;55.700;38.270;2022-11-15T15:29:39;10.10;;;2.33;;
55346;SDS011;41218;55.700;38.270;2022-11-15T15:34:39;5.93;;;2.20;;
55346;SDS011;41218;55.700;38.270;2022-11-15T15:39:40;7.53;;;2.17;;
55346;SDS011;41218;55.700;38.270;2022-11-15T15:44:41;6.73;;;2.23;;
55346;SDS011;41218;55.700;38.270;2022-11-15T15:49:41;4.23;;;2.00;;
55346;SDS011;41218;55.700;38.270;2022-11-15T15:54:42;5.67;;;2.50;;
55346;SDS011;41218;55.700;38.270;2022-11-15T15:59:43;7.57;;;2.78;;
55346;SDS011;41218;55.700;38.270;2022-11-15T16:04:43;4.77;;;2.27;;
55346;SDS011;41218;55.700;38.270;2022-11-15T16:09:44;5.50;;;2.27;;
55346;SDS011;41218;55.700;38.270;2022-11-15T16:15:00;5.18;;;2.50;;
55346;SDS011;41218;55.700;38.270;2022-11-15T16:20:01;9.50;;;2.63;;
55346;SDS011;41218;55.700;38.270;2022-11-15T16:25:02;5.35;;;2.70;;
55346;SDS011;41218;55.700;38.270;2022-11-15T16:30:03;8.52;;;2.90;;
55346;SDS011;41218;55.700;38.270;2022-11-15T16:35:04;6.82;;;2.38;;
55346;SDS011;41218;55.700;38.270;2022-11-15T16:40:08;8.23;;;3.05;;
55346;SDS011;41218;55.700;38.270;2022-11-15T16:45:19;7.13;;;3.15;;
55346;SDS011;41218;55.700;38.270;2022-11-15T16:50:21;9.00;;;2.70;;
55346;SDS011;41218;55.700;38.270;2022-11-15T16:55:24;8.15;;;3.58;;
55346;SDS011;41218;55.700;38.270;2022-11-15T17:00:27;10.25;;;3.78;;
55346;SDS011;41218;55.700;38.270;2022-11-15T17:05:27;5.50;;;2.93;;
55346;SDS011;41218;55.700;38.270;2022-11-15T17:10:28;8.38;;;3.88;;
55346;SDS011;41218;55.700;38.270;2022-11-15T17:15:28;9.50;;;3.90;;
55346;SDS011;41218;55.700;38.270;2022-11-15T17:20:29;7.83;;;3.50;;
55346;SDS011;41218;55.700;38.270;2022-11-15T17:25:30;7.43;;;3.60;;
55346;SDS011;41218;55.700;38.270;2022-11-15T17:30:30;5.60;;;2.60;;
55346;SDS011;41218;55.700;38.270;2022-11-15T17:35:30;6.83;;;3.07;;
55346;SDS011;41218;55.700;38.270;2022-11-15T17:40:31;6.83;;;2.57;;
55346;SDS011;41218;55.700;38.270;2022-11-15T17:45:31;5.00;;;2.33;;
55346;SDS011;41218;55.700;38.270;2022-11-15T17:50:32;5.83;;;2.63;;
55346;SDS011;41218;55.700;38.270;2022-11-15T17:55:33;4.20;;;2.20;;
55346;SDS011;41218;55.700;38.270;2022-11-15T18:00:33;6.70;;;2.80;;
55346;SDS011;41218;55.700;38.270;2022-11-15T18:05:36;6.47;;;2.20;;
55346;SDS011;41218;55.700;38.270;2022-11-15T18:10:37;8.15;;;2.17;;
55346;SDS011;41218;55.700;38.270;2022-11-15T18:15:38;5.83;;;2.30;;
55346;SDS011;41218;55.700;38.270;2022-11-15T18:20:39;5.07;;;1.87;;
55346;SDS011;41218;55.700;38.270;2022-11-15T18:25:40;4.47;;;2.05;;
55346;SDS011;41218;55.700;38.270;2022-11-15T18:30:41;8.38;;;2.17;;
55346;SDS011;41218;55.700;38.270;2022-11-15T18:35:42;10.73;;;2.00;;
55346;SDS011;41218;55.700;38.270;2022-11-15T18:40:42;7.10;;;2.10;;
55346;SDS011;41218;55.700;38.270;2022-11-15T18:45:43;3.43;;;1.97;;
55346;SDS011;41218;55.700;38.270;2022-11-15T18:50:43;5.37;;;2.20;;
55346;SDS011;41218;55.700;38.270;2022-11-15T18:55:44;4.13;;;2.20;;
55346;SDS011;41218;55.700;38.270;2022-11-15T19:00:44;4.40;;;2.17;;
55346;SDS011;41218;55.700;38.270;2022-11-15T19:05:45;5.73;;;2.57;;
55346;SDS011;41218;55.700;38.270;2022-11-15T19:10:45;3.57;;;1.67;;
55346;SDS011;41218;55.700;38.270;2022-11-15T19:15:45;6.67;;;1.77;;
55346;SDS011;41218;55.700;38.270;2022-11-15T19:20:46;6.67;;;2.33;;
55346;SDS011;41218;55.700;38.270;2022-11-15T19:25:52;4.00;;;2.00;;
55346;SDS011;41218;55.700;38.270;2022-11-15T19:31:13;6.28;;;1.73;;
55346;SDS011;41218;55.700;38.270;2022-11-15T19:36:16;6.53;;;1.95;;
55346;SDS011;41218;55.700;38.270;2022-11-15T19:41:19;3.65;;;1.65;;
55346;SDS011;41218;55.700;38.270;2022-11-15T19:46:21;3.40;;;1.70;;
55346;SDS011;41218;55.700;38.270;2022-11-15T19:51:24;5.97;;;1.83;;
55346;SDS011;41218;55.700;38.270;2022-11-15T19:56:28;5.10;;;1.83;;
55346;SDS011;41218;55.700;38.270;2022-11-15T20:01:29;4.17;;;1.70;;
55346;SDS011;41218;55.700;38.270;2022-11-15T20:06:32;3.05;;;1.75;;
55346;SDS011;41218;55.700;38.270;2022-11-15T20:11:35;6.75;;;1.77;;
55346;SDS011;41218;55.700;38.270;2022-11-15T20:16:37;3.47;;;1.65;;
55346;SDS011;41218;55.700;38.270;2022-11-15T20:21:38;6.28;;;2.00;;
55346;SDS011;41218;55.700;38.270;2022-11-15T20:26:38;6.93;;;1.90;;
55346;SDS011;41218;55.700;38.270;2022-11-15T20:31:39;4.87;;;1.83;;
55346;SDS011;41218;55.700;38.270;2022-11-15T20:36:39;4.17;;;1.73;;
55346;SDS011;41218;55.700;38.270;2022-11-15T20:41:40;8.73;;;2.00;;
55346;SDS011;41218;55.700;38.270;2022-11-15T20:46:40;10.23;;;2.30;;
55346;SDS011;41218;55.700;38.270;2022-11-15T20:51:41;6.93;;;2.97;;
55346;SDS011;41218;55.700;38.270;2022-11-15T20:56:41;12.43;;;4.33;;
55346;SDS011;41218;55.700;38.270;2022-11-15T21:01:42;18.20;;;7.60;;
55346;SDS011;41218;55.700;38.270;2022-11-15T21:06:45;19.63;;;8.55;;
55346;SDS011;41218;55.700;38.270;2022-11-15T21:11:46;16.83;;;7.50;;
55346;SDS011;41218;55.700;38.270;2022-11-15T21:17:05;14.02;;;5.65;;
55346;SDS011;41218;55.700;38.270;2022-11-15T21:22:07;17.30;;;6.05;;
55346;SDS011;41218;55.700;38.270;2022-11-15T21:27:11;14.10;;;6.05;;
55346;SDS011;41218;55.700;38.270;2022-11-15T21:32:11;15.93;;;6.27;;
55346;SDS011;41218;55.700;38.270;2022-11-15T21:37:12;14.83;;;5.70;;
55346;SDS011;41218;55.700;38.270;2022-11-15T21:42:12;16.33;;;6.70;;
55346;SDS011;41218;55.700;38.270;2022-11-15T21:47:13;23.60;;;6.30;;
55346;SDS011;41218;55.700;38.270;2022-11-15T21:52:13;18.93;;;6.90;;
55346;SDS011;41218;55.700;38.270;2022-11-15T21:57:14;19.67;;;6.90;;
55346;SDS011;41218;55.700;38.270;2022-11-15T22:02:14;13.10;;;6.33;;
55346;SDS011;41218;55.700;38.270;2022-11-15T22:07:15;11.87;;;4.87;;
55346;SDS011;41218;55.700;38.270;2022-11-15T22:12:15;8.43;;;3.40;;
55346;SDS011;41218;55.700;38.270;2022-11-15T22:17:16;12.33;;;3.57;;
55346;SDS011;41218;55.700;38.270;2022-11-15T22:22:16;10.80;;;4.33;;
55346;SDS011;41218;55.700;38.270;2022-11-15T22:27:17;7.97;;;3.60;;
55346;SDS011;41218;55.700;38.270;2022-11-15T22:32:18;7.90;;;3.23;;
55346;SDS011;41218;55.700;38.270;2022-11-15T22:37:18;5.00;;;2.77;;
55346;SDS011;41218;55.700;38.270;2022-11-15T22:42:19;9.70;;;3.63;;
55346;SDS011;41218;55.700;38.270;2022-11-15T22:47:19;9.87;;;3.57;;
55346;SDS011;41218;55.700;38.270;2022-11-15T22:52:20;8.25;;;3.10;;
55346;SDS011;41218;55.700;38.270;2022-11-15T22:57:21;8.53;;;3.03;;
55346;SDS011;41218;55.700;38.270;2022-11-15T23:02:21;6.47;;;3.00;;
55346;SDS011;41218;55.700;38.270;2022-11-15T23:07:22;9.37;;;3.10;;
55346;SDS011;41218;55.700;38.270;2022-11-15T23:12:22;7.50;;;2.77;;
55346;SDS011;41218;55.700;38.270;2022-11-15T23:17:42;7.55;;;2.95;;
55346;SDS011;41218;55.700;38.270;2022-11-15T23:22:42;5.73;;;2.80;;
55346;SDS011;41218;55.700;38.270;2022-11-15T23:27:48;6.72;;;2.97;;
55346;SDS011;41218;55.700;38.270;2022-11-15T23:32:49;5.97;;;2.83;;
55346;SDS011;41218;55.700;38.270;2022-11-15T23:38:08;6.90;;;3.25;;
55346;SDS011;41218;55.700;38.270;2022-11-15T23:43:09;7.67;;;2.70;;
55346;SDS011;41218;55.700;38.270;2022-11-15T23:48:09;4.17;;;2.37;;
55346;SDS011;41218;55.700;38.270;2022-11-15T23:53:10;5.65;;;2.55;;
55346;SDS011;41218;55.700;38.270;2022-11-15T23:58:11;8.13;;;2.50;;
